sensor_id;sensor_type;location;lat;lon;timestamp;P1;durP1;ratioP1;P2;durP2;ratioP2
9880;SDS011;4979;51.014;6.678;2022-09-17T00:01:02;5.15;;;2.00;;
9880;SDS011;4979;51.014;6.678;2022-09-17T00:03:29;6.53;;;1.55;;
9880;SDS011;4979;51.014;6.678;2022-09-17T00:06:02;8.48;;;2.17;;
9880;SDS011;4979;51.014;6.678;2022-09-17T00:08:33;7.85;;;1.88;;
9880;SDS011;4979;51.014;6.678;2022-09-17T00:11:11;8.32;;;2.10;;
9880;SDS011;4979;51.014;6.678;2022-09-17T00:13:39;10.35;;;2.25;;
9880;SDS011;4979;51.014;6.678;2022-09-17T00:16:06;5.03;;;1.50;;
9880;SDS011;4979;51.014;6.678;2022-09-17T00:18:32;7.55;;;1.52;;
9880;SDS011;4979;51.014;6.678;2022-09-17T00:21:01;5.65;;;1.38;;
9880;SDS011;4979;51.014;6.678;2022-09-17T00:23:27;6.90;;;2.00;;
9880;SDS011;4979;51.014;6.678;2022-09-17T00:25:53;6.03;;;1.80;;
9880;SDS011;4979;51.014;6.678;2022-09-17T00:28:19;7.32;;;2.13;;
9880;SDS011;4979;51.014;6.678;2022-09-17T00:30:44;6.40;;;2.20;;
9880;SDS011;4979;51.014;6.678;2022-09-17T00:33:11;8.43;;;1.77;;
9880;SDS011;4979;51.014;6.678;2022-09-17T00:35:41;4.97;;;1.85;;
9880;SDS011;4979;51.014;6.678;2022-09-17T00:38:07;7.70;;;2.30;;
9880;SDS011;4979;51.014;6.678;2022-09-17T00:40:33;7.25;;;2.05;;
9880;SDS011;4979;51.014;6.678;2022-09-17T00:42:58;5.53;;;1.80;;
9880;SDS011;4979;51.014;6.678;2022-09-17T00:45:24;9.02;;;2.20;;
9880;SDS011;4979;51.014;6.678;2022-09-17T00:47:58;6.00;;;2.20;;
9880;SDS011;4979;51.014;6.678;2022-09-17T00:50:30;5.50;;;1.88;;
9880;SDS011;4979;51.014;6.678;2022-09-17T00:53:05;5.13;;;1.88;;
9880;SDS011;4979;51.014;6.678;2022-09-17T00:55:38;7.47;;;1.85;;
9880;SDS011;4979;51.014;6.678;2022-09-17T00:58:10;6.88;;;2.40;;
9880;SDS011;4979;51.014;6.678;2022-09-17T01:00:38;4.50;;;2.03;;
9880;SDS011;4979;51.014;6.678;2022-09-17T01:03:04;5.07;;;2.08;;
9880;SDS011;4979;51.014;6.678;2022-09-17T01:05:34;3.92;;;2.15;;
9880;SDS011;4979;51.014;6.678;2022-09-17T01:17:29;6.10;;;2.10;;
9880;SDS011;4979;51.014;6.678;2022-09-17T01:26:18;5.00;;;1.77;;
9880;SDS011;4979;51.014;6.678;2022-09-17T01:31:53;6.82;;;1.88;;
9880;SDS011;4979;51.014;6.678;2022-09-17T01:34:44;5.20;;;1.70;;
9880;SDS011;4979;51.014;6.678;2022-09-17T01:44:59;9.30;;;2.17;;
9880;SDS011;4979;51.014;6.678;2022-09-17T01:47:37;5.55;;;2.78;;
9880;SDS011;4979;51.014;6.678;2022-09-17T01:50:09;8.65;;;2.28;;
9880;SDS011;4979;51.014;6.678;2022-09-17T01:52:42;8.07;;;1.88;;
9880;SDS011;4979;51.014;6.678;2022-09-17T01:55:10;5.85;;;2.40;;
9880;SDS011;4979;51.014;6.678;2022-09-17T01:57:40;10.25;;;1.58;;
9880;SDS011;4979;51.014;6.678;2022-09-17T02:00:14;5.28;;;2.58;;
9880;SDS011;4979;51.014;6.678;2022-09-17T02:08:17;5.65;;;2.30;;
9880;SDS011;4979;51.014;6.678;2022-09-17T02:10:56;9.10;;;2.20;;
9880;SDS011;4979;51.014;6.678;2022-09-17T02:13:38;6.95;;;2.72;;
9880;SDS011;4979;51.014;6.678;2022-09-17T02:16:12;13.75;;;2.70;;
9880;SDS011;4979;51.014;6.678;2022-09-17T02:24:24;8.25;;;2.30;;
9880;SDS011;4979;51.014;6.678;2022-09-17T02:29:25;14.00;;;3.38;;
9880;SDS011;4979;51.014;6.678;2022-09-17T02:31:57;8.45;;;2.08;;
9880;SDS011;4979;51.014;6.678;2022-09-17T02:34:23;11.45;;;3.03;;
9880;SDS011;4979;51.014;6.678;2022-09-17T02:36:51;10.38;;;2.85;;
9880;SDS011;4979;51.014;6.678;2022-09-17T02:39:16;12.50;;;2.70;;
9880;SDS011;4979;51.014;6.678;2022-09-17T02:41:49;9.60;;;2.55;;
9880;SDS011;4979;51.014;6.678;2022-09-17T02:44:32;7.97;;;2.45;;
9880;SDS011;4979;51.014;6.678;2022-09-17T02:55:21;12.68;;;2.55;;
9880;SDS011;4979;51.014;6.678;2022-09-17T02:58:13;10.43;;;2.70;;
9880;SDS011;4979;51.014;6.678;2022-09-17T03:00:46;8.13;;;2.42;;
9880;SDS011;4979;51.014;6.678;2022-09-17T03:05:45;7.20;;;1.90;;
9880;SDS011;4979;51.014;6.678;2022-09-17T03:08:12;11.77;;;2.63;;
9880;SDS011;4979;51.014;6.678;2022-09-17T03:10:40;6.95;;;2.10;;
9880;SDS011;4979;51.014;6.678;2022-09-17T03:13:05;14.13;;;2.78;;
9880;SDS011;4979;51.014;6.678;2022-09-17T03:15:31;11.23;;;2.40;;
9880;SDS011;4979;51.014;6.678;2022-09-17T03:17:56;10.25;;;2.50;;
9880;SDS011;4979;51.014;6.678;2022-09-17T03:20:22;8.35;;;2.15;;
9880;SDS011;4979;51.014;6.678;2022-09-17T03:22:47;9.80;;;3.38;;
9880;SDS011;4979;51.014;6.678;2022-09-17T03:25:15;14.20;;;2.88;;
9880;SDS011;4979;51.014;6.678;2022-09-17T03:27:40;9.30;;;1.90;;
9880;SDS011;4979;51.014;6.678;2022-09-17T03:30:06;6.07;;;1.77;;
9880;SDS011;4979;51.014;6.678;2022-09-17T03:32:32;17.77;;;3.00;;
9880;SDS011;4979;51.014;6.678;2022-09-17T03:34:57;8.93;;;2.03;;
9880;SDS011;4979;51.014;6.678;2022-09-17T03:37:23;10.63;;;1.98;;
9880;SDS011;4979;51.014;6.678;2022-09-17T03:39:49;8.45;;;2.20;;
9880;SDS011;4979;51.014;6.678;2022-09-17T03:42:14;9.13;;;1.75;;
9880;SDS011;4979;51.014;6.678;2022-09-17T03:44:40;13.02;;;2.38;;
9880;SDS011;4979;51.014;6.678;2022-09-17T03:47:05;10.70;;;2.45;;
9880;SDS011;4979;51.014;6.678;2022-09-17T03:49:31;7.20;;;2.05;;
9880;SDS011;4979;51.014;6.678;2022-09-17T03:51:57;7.85;;;2.03;;
9880;SDS011;4979;51.014;6.678;2022-09-17T03:54:22;5.88;;;1.95;;
9880;SDS011;4979;51.014;6.678;2022-09-17T03:56:48;9.90;;;2.25;;
9880;SDS011;4979;51.014;6.678;2022-09-17T03:59:13;7.55;;;2.30;;
9880;SDS011;4979;51.014;6.678;2022-09-17T04:01:39;6.80;;;2.30;;
9880;SDS011;4979;51.014;6.678;2022-09-17T04:04:05;10.00;;;1.83;;
9880;SDS011;4979;51.014;6.678;2022-09-17T04:06:30;13.10;;;2.35;;
9880;SDS011;4979;51.014;6.678;2022-09-17T04:08:56;10.52;;;2.22;;
9880;SDS011;4979;51.014;6.678;2022-09-17T04:11:22;9.95;;;3.08;;
9880;SDS011;4979;51.014;6.678;2022-09-17T04:13:47;9.50;;;2.25;;
9880;SDS011;4979;51.014;6.678;2022-09-17T04:16:13;4.35;;;1.75;;
9880;SDS011;4979;51.014;6.678;2022-09-17T04:18:39;11.27;;;2.10;;
9880;SDS011;4979;51.014;6.678;2022-09-17T04:21:04;17.38;;;2.13;;
9880;SDS011;4979;51.014;6.678;2022-09-17T04:23:30;6.03;;;2.10;;
9880;SDS011;4979;51.014;6.678;2022-09-17T04:25:56;8.68;;;2.55;;
9880;SDS011;4979;51.014;6.678;2022-09-17T04:28:22;6.63;;;2.15;;
9880;SDS011;4979;51.014;6.678;2022-09-17T04:30:47;10.80;;;2.75;;
9880;SDS011;4979;51.014;6.678;2022-09-17T04:33:13;11.63;;;2.85;;
9880;SDS011;4979;51.014;6.678;2022-09-17T04:35:39;6.32;;;1.77;;
9880;SDS011;4979;51.014;6.678;2022-09-17T04:38:05;10.82;;;2.30;;
9880;SDS011;4979;51.014;6.678;2022-09-17T04:40:31;6.28;;;2.08;;
9880;SDS011;4979;51.014;6.678;2022-09-17T04:42:57;8.23;;;1.85;;
9880;SDS011;4979;51.014;6.678;2022-09-17T04:47:50;8.98;;;2.35;;
9880;SDS011;4979;51.014;6.678;2022-09-17T04:50:17;12.15;;;2.42;;
9880;SDS011;4979;51.014;6.678;2022-09-17T04:52:43;9.88;;;2.72;;
9880;SDS011;4979;51.014;6.678;2022-09-17T04:55:09;10.32;;;2.20;;
9880;SDS011;4979;51.014;6.678;2022-09-17T04:57:35;7.78;;;2.28;;
9880;SDS011;4979;51.014;6.678;2022-09-17T05:00:02;7.78;;;2.78;;
9880;SDS011;4979;51.014;6.678;2022-09-17T05:02:30;7.10;;;2.00;;
9880;SDS011;4979;51.014;6.678;2022-09-17T05:04:56;7.18;;;2.05;;
9880;SDS011;4979;51.014;6.678;2022-09-17T05:07:22;8.80;;;2.17;;
9880;SDS011;4979;51.014;6.678;2022-09-17T05:09:47;9.77;;;2.05;;
9880;SDS011;4979;51.014;6.678;2022-09-17T05:12:13;8.90;;;2.05;;
9880;SDS011;4979;51.014;6.678;2022-09-17T05:14:38;7.43;;;1.95;;
9880;SDS011;4979;51.014;6.678;2022-09-17T05:17:04;5.13;;;1.88;;
9880;SDS011;4979;51.014;6.678;2022-09-17T05:19:29;7.43;;;2.00;;
9880;SDS011;4979;51.014;6.678;2022-09-17T05:21:55;12.00;;;2.47;;
9880;SDS011;4979;51.014;6.678;2022-09-17T05:24:21;9.88;;;2.40;;
9880;SDS011;4979;51.014;6.678;2022-09-17T05:26:46;8.02;;;2.60;;
9880;SDS011;4979;51.014;6.678;2022-09-17T05:29:12;5.97;;;1.60;;
9880;SDS011;4979;51.014;6.678;2022-09-17T05:31:37;10.07;;;2.13;;
9880;SDS011;4979;51.014;6.678;2022-09-17T05:34:03;8.18;;;2.22;;
9880;SDS011;4979;51.014;6.678;2022-09-17T05:36:29;8.00;;;2.05;;
9880;SDS011;4979;51.014;6.678;2022-09-17T05:38:54;10.13;;;2.08;;
9880;SDS011;4979;51.014;6.678;2022-09-17T05:41:20;4.60;;;1.65;;
9880;SDS011;4979;51.014;6.678;2022-09-17T05:43:45;7.28;;;1.75;;
9880;SDS011;4979;51.014;6.678;2022-09-17T05:46:11;7.43;;;1.90;;
9880;SDS011;4979;51.014;6.678;2022-09-17T05:48:37;12.18;;;2.03;;
9880;SDS011;4979;51.014;6.678;2022-09-17T05:51:02;6.28;;;1.75;;
9880;SDS011;4979;51.014;6.678;2022-09-17T05:53:28;8.60;;;2.28;;
9880;SDS011;4979;51.014;6.678;2022-09-17T05:55:57;15.32;;;3.35;;
9880;SDS011;4979;51.014;6.678;2022-09-17T05:58:23;7.90;;;1.83;;
9880;SDS011;4979;51.014;6.678;2022-09-17T06:00:49;2.00;;;1.40;;
9880;SDS011;4979;51.014;6.678;2022-09-17T06:03:15;7.32;;;1.80;;
9880;SDS011;4979;51.014;6.678;2022-09-17T06:05:42;9.57;;;1.90;;
9880;SDS011;4979;51.014;6.678;2022-09-17T06:08:16;6.47;;;1.92;;
9880;SDS011;4979;51.014;6.678;2022-09-17T06:10:41;6.28;;;1.80;;
9880;SDS011;4979;51.014;6.678;2022-09-17T06:13:07;5.50;;;1.70;;
9880;SDS011;4979;51.014;6.678;2022-09-17T06:15:32;10.35;;;2.28;;
9880;SDS011;4979;51.014;6.678;2022-09-17T06:17:58;8.65;;;1.80;;
9880;SDS011;4979;51.014;6.678;2022-09-17T06:20:24;4.78;;;1.75;;
9880;SDS011;4979;51.014;6.678;2022-09-17T06:22:54;7.82;;;1.67;;
9880;SDS011;4979;51.014;6.678;2022-09-17T06:25:21;5.15;;;2.13;;
9880;SDS011;4979;51.014;6.678;2022-09-17T06:27:47;11.82;;;2.38;;
9880;SDS011;4979;51.014;6.678;2022-09-17T06:30:13;8.65;;;1.88;;
9880;SDS011;4979;51.014;6.678;2022-09-17T06:32:39;4.00;;;1.55;;
9880;SDS011;4979;51.014;6.678;2022-09-17T06:35:04;7.53;;;1.50;;
9880;SDS011;4979;51.014;6.678;2022-09-17T06:37:31;5.60;;;1.67;;
9880;SDS011;4979;51.014;6.678;2022-09-17T06:39:57;7.07;;;2.05;;
9880;SDS011;4979;51.014;6.678;2022-09-17T06:42:23;2.60;;;1.27;;
9880;SDS011;4979;51.014;6.678;2022-09-17T06:44:49;6.72;;;1.60;;
9880;SDS011;4979;51.014;6.678;2022-09-17T06:47:15;6.80;;;1.65;;
9880;SDS011;4979;51.014;6.678;2022-09-17T06:49:40;3.60;;;1.70;;
9880;SDS011;4979;51.014;6.678;2022-09-17T06:52:06;6.22;;;1.90;;
9880;SDS011;4979;51.014;6.678;2022-09-17T06:54:32;5.53;;;1.90;;
9880;SDS011;4979;51.014;6.678;2022-09-17T06:56:57;11.98;;;1.75;;
9880;SDS011;4979;51.014;6.678;2022-09-17T06:59:23;12.68;;;2.15;;
9880;SDS011;4979;51.014;6.678;2022-09-17T07:01:49;5.75;;;1.92;;
9880;SDS011;4979;51.014;6.678;2022-09-17T07:04:15;6.03;;;1.75;;
9880;SDS011;4979;51.014;6.678;2022-09-17T07:06:42;10.55;;;2.22;;
9880;SDS011;4979;51.014;6.678;2022-09-17T07:09:09;5.78;;;1.80;;
9880;SDS011;4979;51.014;6.678;2022-09-17T07:11:35;6.53;;;1.52;;
9880;SDS011;4979;51.014;6.678;2022-09-17T07:14:01;10.60;;;1.95;;
9880;SDS011;4979;51.014;6.678;2022-09-17T07:16:28;7.13;;;2.42;;
9880;SDS011;4979;51.014;6.678;2022-09-17T07:18:57;10.05;;;2.38;;
9880;SDS011;4979;51.014;6.678;2022-09-17T07:21:22;5.72;;;1.58;;
9880;SDS011;4979;51.014;6.678;2022-09-17T07:23:49;10.02;;;1.98;;
9880;SDS011;4979;51.014;6.678;2022-09-17T07:26:15;7.38;;;1.70;;
9880;SDS011;4979;51.014;6.678;2022-09-17T07:28:41;7.93;;;1.65;;
9880;SDS011;4979;51.014;6.678;2022-09-17T07:31:08;8.52;;;1.63;;
9880;SDS011;4979;51.014;6.678;2022-09-17T07:33:35;8.98;;;2.45;;
9880;SDS011;4979;51.014;6.678;2022-09-17T07:36:05;11.63;;;2.58;;
9880;SDS011;4979;51.014;6.678;2022-09-17T07:38:32;16.27;;;2.47;;
9880;SDS011;4979;51.014;6.678;2022-09-17T07:41:03;8.05;;;1.90;;
9880;SDS011;4979;51.014;6.678;2022-09-17T07:43:30;6.47;;;1.70;;
9880;SDS011;4979;51.014;6.678;2022-09-17T07:45:58;7.20;;;1.80;;
9880;SDS011;4979;51.014;6.678;2022-09-17T07:48:25;7.78;;;2.00;;
9880;SDS011;4979;51.014;6.678;2022-09-17T07:50:52;4.38;;;1.50;;
9880;SDS011;4979;51.014;6.678;2022-09-17T07:53:18;7.05;;;1.90;;
9880;SDS011;4979;51.014;6.678;2022-09-17T07:55:57;5.80;;;1.70;;
9880;SDS011;4979;51.014;6.678;2022-09-17T07:58:28;9.45;;;2.00;;
9880;SDS011;4979;51.014;6.678;2022-09-17T08:01:02;6.40;;;1.85;;
9880;SDS011;4979;51.014;6.678;2022-09-17T08:03:30;7.05;;;1.58;;
9880;SDS011;4979;51.014;6.678;2022-09-17T08:06:00;7.47;;;2.05;;
9880;SDS011;4979;51.014;6.678;2022-09-17T08:08:36;7.30;;;1.80;;
9880;SDS011;4979;51.014;6.678;2022-09-17T08:11:04;7.03;;;1.65;;
9880;SDS011;4979;51.014;6.678;2022-09-17T08:13:31;6.78;;;1.90;;
9880;SDS011;4979;51.014;6.678;2022-09-17T08:15:58;6.15;;;1.85;;
9880;SDS011;4979;51.014;6.678;2022-09-17T08:18:25;4.10;;;1.60;;
9880;SDS011;4979;51.014;6.678;2022-09-17T08:20:51;5.90;;;1.75;;
9880;SDS011;4979;51.014;6.678;2022-09-17T08:23:16;5.10;;;1.90;;
9880;SDS011;4979;51.014;6.678;2022-09-17T08:25:42;7.85;;;2.50;;
9880;SDS011;4979;51.014;6.678;2022-09-17T08:28:07;7.45;;;2.65;;
9880;SDS011;4979;51.014;6.678;2022-09-17T08:30:33;7.65;;;3.42;;
9880;SDS011;4979;51.014;6.678;2022-09-17T08:32:58;4.22;;;1.98;;
9880;SDS011;4979;51.014;6.678;2022-09-17T08:35:24;4.70;;;1.88;;
9880;SDS011;4979;51.014;6.678;2022-09-17T08:37:53;4.75;;;1.25;;
9880;SDS011;4979;51.014;6.678;2022-09-17T08:40:19;6.95;;;2.17;;
9880;SDS011;4979;51.014;6.678;2022-09-17T08:42:58;6.00;;;1.40;;
9880;SDS011;4979;51.014;6.678;2022-09-17T08:45:26;14.55;;;2.75;;
9880;SDS011;4979;51.014;6.678;2022-09-17T08:47:54;5.30;;;1.42;;
9880;SDS011;4979;51.014;6.678;2022-09-17T08:50:31;5.68;;;2.00;;
9880;SDS011;4979;51.014;6.678;2022-09-17T08:55:53;5.32;;;1.88;;
9880;SDS011;4979;51.014;6.678;2022-09-17T08:58:47;3.45;;;1.45;;
9880;SDS011;4979;51.014;6.678;2022-09-17T09:02:03;6.30;;;2.50;;
9880;SDS011;4979;51.014;6.678;2022-09-17T09:07:28;8.63;;;2.05;;
9880;SDS011;4979;51.014;6.678;2022-09-17T09:12:48;6.22;;;1.83;;
9880;SDS011;4979;51.014;6.678;2022-09-17T09:17:42;6.70;;;1.95;;
9880;SDS011;4979;51.014;6.678;2022-09-17T09:20:47;10.80;;;2.33;;
9880;SDS011;4979;51.014;6.678;2022-09-17T09:23:18;7.43;;;1.80;;
9880;SDS011;4979;51.014;6.678;2022-09-17T09:25:54;5.18;;;1.58;;
9880;SDS011;4979;51.014;6.678;2022-09-17T09:34:11;6.18;;;1.80;;
9880;SDS011;4979;51.014;6.678;2022-09-17T09:36:38;7.75;;;2.00;;
9880;SDS011;4979;51.014;6.678;2022-09-17T09:39:13;5.57;;;1.25;;
9880;SDS011;4979;51.014;6.678;2022-09-17T09:44:29;5.80;;;1.38;;
9880;SDS011;4979;51.014;6.678;2022-09-17T09:47:17;5.70;;;1.40;;
9880;SDS011;4979;51.014;6.678;2022-09-17T09:58:37;4.55;;;1.08;;
9880;SDS011;4979;51.014;6.678;2022-09-17T10:01:14;5.93;;;1.60;;
9880;SDS011;4979;51.014;6.678;2022-09-17T10:03:41;6.00;;;1.23;;
9880;SDS011;4979;51.014;6.678;2022-09-17T10:06:10;10.18;;;1.58;;
9880;SDS011;4979;51.014;6.678;2022-09-17T10:08:38;4.40;;;1.65;;
9880;SDS011;4979;51.014;6.678;2022-09-17T10:11:25;2.90;;;1.35;;
9880;SDS011;4979;51.014;6.678;2022-09-17T10:13:52;3.95;;;1.58;;
9880;SDS011;4979;51.014;6.678;2022-09-17T10:22:33;5.85;;;1.50;;
9880;SDS011;4979;51.014;6.678;2022-09-17T10:25:01;9.70;;;1.63;;
9880;SDS011;4979;51.014;6.678;2022-09-17T10:27:30;3.75;;;1.40;;
9880;SDS011;4979;51.014;6.678;2022-09-17T10:30:12;6.63;;;1.58;;
9880;SDS011;4979;51.014;6.678;2022-09-17T10:32:41;8.73;;;1.33;;
9880;SDS011;4979;51.014;6.678;2022-09-17T10:37:43;5.97;;;1.55;;
9880;SDS011;4979;51.014;6.678;2022-09-17T10:40:34;4.65;;;1.40;;
9880;SDS011;4979;51.014;6.678;2022-09-17T10:45:42;7.00;;;1.48;;
9880;SDS011;4979;51.014;6.678;2022-09-17T10:48:16;5.15;;;1.33;;
9880;SDS011;4979;51.014;6.678;2022-09-17T10:50:54;5.50;;;1.73;;
9880;SDS011;4979;51.014;6.678;2022-09-17T10:53:20;2.92;;;1.58;;
9880;SDS011;4979;51.014;6.678;2022-09-17T11:03:48;4.40;;;1.48;;
9880;SDS011;4979;51.014;6.678;2022-09-17T11:06:44;4.82;;;1.10;;
9880;SDS011;4979;51.014;6.678;2022-09-17T11:27:00;8.13;;;2.10;;
9880;SDS011;4979;51.014;6.678;2022-09-17T11:29:44;6.47;;;1.60;;
9880;SDS011;4979;51.014;6.678;2022-09-17T11:32:32;4.53;;;1.30;;
9880;SDS011;4979;51.014;6.678;2022-09-17T11:35:20;5.32;;;1.90;;
9880;SDS011;4979;51.014;6.678;2022-09-17T11:37:57;1.35;;;1.00;;
9880;SDS011;4979;51.014;6.678;2022-09-17T11:40:42;2.28;;;1.10;;
9880;SDS011;4979;51.014;6.678;2022-09-17T11:43:20;2.08;;;1.00;;
9880;SDS011;4979;51.014;6.678;2022-09-17T11:48:52;4.00;;;1.35;;
9880;SDS011;4979;51.014;6.678;2022-09-17T11:56:34;3.45;;;1.00;;
9880;SDS011;4979;51.014;6.678;2022-09-17T11:59:10;5.53;;;1.67;;
9880;SDS011;4979;51.014;6.678;2022-09-17T12:07:34;10.65;;;1.85;;
9880;SDS011;4979;51.014;6.678;2022-09-17T12:13:06;3.40;;;1.40;;
9880;SDS011;4979;51.014;6.678;2022-09-17T12:15:38;4.72;;;1.33;;
9880;SDS011;4979;51.014;6.678;2022-09-17T12:20:44;3.95;;;1.50;;
9880;SDS011;4979;51.014;6.678;2022-09-17T12:23:14;4.05;;;1.48;;
9880;SDS011;4979;51.014;6.678;2022-09-17T12:25:54;3.83;;;1.38;;
9880;SDS011;4979;51.014;6.678;2022-09-17T12:28:26;3.50;;;1.13;;
9880;SDS011;4979;51.014;6.678;2022-09-17T12:31:01;5.55;;;1.30;;
9880;SDS011;4979;51.014;6.678;2022-09-17T12:33:38;2.22;;;0.68;;
9880;SDS011;4979;51.014;6.678;2022-09-17T12:58:19;2.60;;;0.90;;
9880;SDS011;4979;51.014;6.678;2022-09-17T13:01:06;3.40;;;1.02;;
9880;SDS011;4979;51.014;6.678;2022-09-17T13:03:45;2.05;;;0.93;;
9880;SDS011;4979;51.014;6.678;2022-09-17T13:09:27;2.53;;;0.75;;
9880;SDS011;4979;51.014;6.678;2022-09-17T13:12:20;6.70;;;1.30;;
9880;SDS011;4979;51.014;6.678;2022-09-17T13:18:10;5.15;;;1.83;;
9880;SDS011;4979;51.014;6.678;2022-09-17T13:23:30;3.92;;;1.50;;
9880;SDS011;4979;51.014;6.678;2022-09-17T13:25:58;2.05;;;1.50;;
9880;SDS011;4979;51.014;6.678;2022-09-17T13:28:39;7.93;;;4.03;;
9880;SDS011;4979;51.014;6.678;2022-09-17T13:31:06;7.63;;;4.00;;
9880;SDS011;4979;51.014;6.678;2022-09-17T13:39:03;3.78;;;1.67;;
9880;SDS011;4979;51.014;6.678;2022-09-17T13:41:31;5.72;;;2.25;;
9880;SDS011;4979;51.014;6.678;2022-09-17T13:44:05;4.40;;;2.40;;
9880;SDS011;4979;51.014;6.678;2022-09-17T13:46:33;5.53;;;1.52;;
9880;SDS011;4979;51.014;6.678;2022-09-17T13:49:01;3.63;;;1.80;;
9880;SDS011;4979;51.014;6.678;2022-09-17T13:53:57;4.55;;;1.17;;
9880;SDS011;4979;51.014;6.678;2022-09-17T13:56:35;5.35;;;1.25;;
9880;SDS011;4979;51.014;6.678;2022-09-17T13:59:23;4.93;;;0.93;;
9880;SDS011;4979;51.014;6.678;2022-09-17T14:01:59;3.17;;;1.30;;
9880;SDS011;4979;51.014;6.678;2022-09-17T14:04:45;5.20;;;1.48;;
9880;SDS011;4979;51.014;6.678;2022-09-17T14:23:34;8.82;;;2.47;;
9880;SDS011;4979;51.014;6.678;2022-09-17T14:26:11;6.85;;;1.77;;
9880;SDS011;4979;51.014;6.678;2022-09-17T14:28:59;5.43;;;2.40;;
9880;SDS011;4979;51.014;6.678;2022-09-17T14:31:33;6.25;;;1.98;;
9880;SDS011;4979;51.014;6.678;2022-09-17T14:34:02;3.47;;;1.40;;
9880;SDS011;4979;51.014;6.678;2022-09-17T14:36:29;4.35;;;1.60;;
9880;SDS011;4979;51.014;6.678;2022-09-17T14:38:58;4.40;;;1.60;;
9880;SDS011;4979;51.014;6.678;2022-09-17T14:41:25;2.13;;;1.30;;
9880;SDS011;4979;51.014;6.678;2022-09-17T14:44:06;3.38;;;1.58;;
9880;SDS011;4979;51.014;6.678;2022-09-17T14:46:43;3.38;;;1.65;;
9880;SDS011;4979;51.014;6.678;2022-09-17T14:49:28;4.07;;;1.88;;
9880;SDS011;4979;51.014;6.678;2022-09-17T14:51:57;8.00;;;2.35;;
9880;SDS011;4979;51.014;6.678;2022-09-17T14:54:27;5.25;;;2.60;;
9880;SDS011;4979;51.014;6.678;2022-09-17T14:56:55;6.60;;;2.85;;
9880;SDS011;4979;51.014;6.678;2022-09-17T14:59:53;4.00;;;1.85;;
9880;SDS011;4979;51.014;6.678;2022-09-17T15:04:55;3.33;;;1.15;;
9880;SDS011;4979;51.014;6.678;2022-09-17T15:07:21;4.10;;;1.20;;
9880;SDS011;4979;51.014;6.678;2022-09-17T15:09:48;3.58;;;1.60;;
9880;SDS011;4979;51.014;6.678;2022-09-17T15:12:15;5.82;;;2.20;;
9880;SDS011;4979;51.014;6.678;2022-09-17T15:14:42;3.95;;;1.40;;
9880;SDS011;4979;51.014;6.678;2022-09-17T15:17:11;9.80;;;1.95;;
9880;SDS011;4979;51.014;6.678;2022-09-17T15:19:39;7.70;;;2.25;;
9880;SDS011;4979;51.014;6.678;2022-09-17T15:22:08;13.18;;;2.20;;
9880;SDS011;4979;51.014;6.678;2022-09-17T15:27:39;5.30;;;1.98;;
9880;SDS011;4979;51.014;6.678;2022-09-17T15:30:10;13.23;;;2.95;;
9880;SDS011;4979;51.014;6.678;2022-09-17T15:32:47;5.03;;;1.10;;
9880;SDS011;4979;51.014;6.678;2022-09-17T15:35:19;6.15;;;1.65;;
9880;SDS011;4979;51.014;6.678;2022-09-17T15:37:54;5.38;;;1.75;;
9880;SDS011;4979;51.014;6.678;2022-09-17T15:40:29;8.93;;;1.80;;
9880;SDS011;4979;51.014;6.678;2022-09-17T15:45:41;5.70;;;1.50;;
9880;SDS011;4979;51.014;6.678;2022-09-17T15:48:19;9.95;;;2.00;;
9880;SDS011;4979;51.014;6.678;2022-09-17T15:50:55;6.38;;;1.60;;
9880;SDS011;4979;51.014;6.678;2022-09-17T15:53:23;6.35;;;1.50;;
9880;SDS011;4979;51.014;6.678;2022-09-17T15:58:27;8.52;;;1.73;;
9880;SDS011;4979;51.014;6.678;2022-09-17T16:08:47;9.57;;;2.58;;
9880;SDS011;4979;51.014;6.678;2022-09-17T16:11:15;7.60;;;2.80;;
9880;SDS011;4979;51.014;6.678;2022-09-17T16:13:42;21.85;;;6.70;;
9880;SDS011;4979;51.014;6.678;2022-09-17T16:16:13;31.33;;;8.68;;
9880;SDS011;4979;51.014;6.678;2022-09-17T16:18:40;18.58;;;6.07;;
9880;SDS011;4979;51.014;6.678;2022-09-17T16:21:07;13.95;;;4.50;;
9880;SDS011;4979;51.014;6.678;2022-09-17T16:23:34;6.78;;;3.45;;
9880;SDS011;4979;51.014;6.678;2022-09-17T16:26:00;6.45;;;2.75;;
9880;SDS011;4979;51.014;6.678;2022-09-17T16:28:26;8.77;;;3.13;;
9880;SDS011;4979;51.014;6.678;2022-09-17T16:30:51;14.30;;;5.03;;
9880;SDS011;4979;51.014;6.678;2022-09-17T16:33:17;7.95;;;3.00;;
9880;SDS011;4979;51.014;6.678;2022-09-17T16:35:43;10.15;;;4.45;;
9880;SDS011;4979;51.014;6.678;2022-09-17T16:38:09;10.95;;;3.65;;
9880;SDS011;4979;51.014;6.678;2022-09-17T16:40:42;7.68;;;2.70;;
9880;SDS011;4979;51.014;6.678;2022-09-17T16:43:11;9.27;;;2.13;;
9880;SDS011;4979;51.014;6.678;2022-09-17T16:45:36;25.00;;;6.40;;
9880;SDS011;4979;51.014;6.678;2022-09-17T16:48:03;21.08;;;4.68;;
9880;SDS011;4979;51.014;6.678;2022-09-17T16:50:30;21.38;;;5.40;;
9880;SDS011;4979;51.014;6.678;2022-09-17T16:52:55;16.38;;;5.03;;
9880;SDS011;4979;51.014;6.678;2022-09-17T16:55:21;20.42;;;6.13;;
9880;SDS011;4979;51.014;6.678;2022-09-17T16:57:46;23.45;;;6.75;;
9880;SDS011;4979;51.014;6.678;2022-09-17T17:00:13;7.82;;;2.50;;
9880;SDS011;4979;51.014;6.678;2022-09-17T17:02:43;9.02;;;2.05;;
9880;SDS011;4979;51.014;6.678;2022-09-17T17:05:15;4.10;;;1.77;;
9880;SDS011;4979;51.014;6.678;2022-09-17T17:07:40;8.63;;;2.05;;
9880;SDS011;4979;51.014;6.678;2022-09-17T17:10:06;7.55;;;1.58;;
9880;SDS011;4979;51.014;6.678;2022-09-17T17:12:35;7.45;;;1.63;;
9880;SDS011;4979;51.014;6.678;2022-09-17T17:15:02;5.38;;;1.52;;
9880;SDS011;4979;51.014;6.678;2022-09-17T17:17:30;9.55;;;1.90;;
9880;SDS011;4979;51.014;6.678;2022-09-17T17:19:56;5.90;;;1.48;;
9880;SDS011;4979;51.014;6.678;2022-09-17T17:22:22;3.75;;;1.33;;
9880;SDS011;4979;51.014;6.678;2022-09-17T17:24:48;7.10;;;2.83;;
9880;SDS011;4979;51.014;6.678;2022-09-17T17:27:14;7.13;;;1.48;;
9880;SDS011;4979;51.014;6.678;2022-09-17T17:29:39;11.02;;;1.70;;
9880;SDS011;4979;51.014;6.678;2022-09-17T17:32:05;7.10;;;2.35;;
9880;SDS011;4979;51.014;6.678;2022-09-17T17:34:31;5.63;;;1.58;;
9880;SDS011;4979;51.014;6.678;2022-09-17T17:36:57;5.85;;;1.67;;
9880;SDS011;4979;51.014;6.678;2022-09-17T17:39:23;5.90;;;1.63;;
9880;SDS011;4979;51.014;6.678;2022-09-17T17:41:48;11.75;;;2.42;;
9880;SDS011;4979;51.014;6.678;2022-09-17T17:44:14;8.90;;;2.05;;
9880;SDS011;4979;51.014;6.678;2022-09-17T17:46:39;9.70;;;2.03;;
9880;SDS011;4979;51.014;6.678;2022-09-17T17:49:05;9.25;;;2.05;;
9880;SDS011;4979;51.014;6.678;2022-09-17T17:51:32;6.63;;;1.80;;
9880;SDS011;4979;51.014;6.678;2022-09-17T17:53:58;8.15;;;2.20;;
9880;SDS011;4979;51.014;6.678;2022-09-17T17:56:24;9.23;;;2.80;;
9880;SDS011;4979;51.014;6.678;2022-09-17T17:58:53;15.32;;;4.22;;
9880;SDS011;4979;51.014;6.678;2022-09-17T18:01:29;10.45;;;3.53;;
9880;SDS011;4979;51.014;6.678;2022-09-17T18:03:56;6.13;;;2.55;;
9880;SDS011;4979;51.014;6.678;2022-09-17T18:06:22;12.15;;;3.95;;
9880;SDS011;4979;51.014;6.678;2022-09-17T18:08:48;9.13;;;2.92;;
9880;SDS011;4979;51.014;6.678;2022-09-17T18:11:14;11.30;;;2.70;;
9880;SDS011;4979;51.014;6.678;2022-09-17T18:13:39;13.70;;;2.33;;
9880;SDS011;4979;51.014;6.678;2022-09-17T18:16:05;7.20;;;1.90;;
9880;SDS011;4979;51.014;6.678;2022-09-17T18:18:40;9.35;;;1.77;;
9880;SDS011;4979;51.014;6.678;2022-09-17T18:21:08;8.52;;;2.50;;
9880;SDS011;4979;51.014;6.678;2022-09-17T18:23:36;5.15;;;2.13;;
9880;SDS011;4979;51.014;6.678;2022-09-17T18:26:03;5.85;;;2.17;;
9880;SDS011;4979;51.014;6.678;2022-09-17T18:28:30;8.93;;;2.05;;
9880;SDS011;4979;51.014;6.678;2022-09-17T18:31:02;11.27;;;2.08;;
9880;SDS011;4979;51.014;6.678;2022-09-17T18:33:32;17.13;;;2.78;;
9880;SDS011;4979;51.014;6.678;2022-09-17T18:36:00;10.27;;;1.88;;
9880;SDS011;4979;51.014;6.678;2022-09-17T18:38:27;8.52;;;2.00;;
9880;SDS011;4979;51.014;6.678;2022-09-17T18:40:52;13.13;;;2.30;;
9880;SDS011;4979;51.014;6.678;2022-09-17T18:43:18;7.88;;;1.83;;
9880;SDS011;4979;51.014;6.678;2022-09-17T18:45:53;7.45;;;2.22;;
9880;SDS011;4979;51.014;6.678;2022-09-17T18:48:20;7.25;;;1.88;;
9880;SDS011;4979;51.014;6.678;2022-09-17T18:50:59;7.32;;;1.63;;
9880;SDS011;4979;51.014;6.678;2022-09-17T18:53:29;9.30;;;2.13;;
9880;SDS011;4979;51.014;6.678;2022-09-17T18:55:59;9.35;;;2.10;;
9880;SDS011;4979;51.014;6.678;2022-09-17T18:58:32;10.88;;;2.15;;
9880;SDS011;4979;51.014;6.678;2022-09-17T19:00:58;10.00;;;1.90;;